»·PEaware :: N29143 KOXR-KSMX

N29143 :: KOXR-KSMX

FLIGHT INFORMATION

Flight Status: Arrived
Operator: Privately registered:
United States
More flights under this callsign
Pilot: Cannon L. (16231)
Aircraft: CESSNA 172 SKYHAWK
(C172)
More flights by this aircraft type
Origin: KOXR Oxnard
United States
Destination: KSMX Santa Maria Pub/Capt Hancock
United States
More flights between these airports :: More routes between these airports
Route: +V25 RZS RZS286 KOAKS
File this flight plan on PilotEdge
Remarks:
Altitude:
(Current/Filed)
8,000ft
Speed:
(Current/Filed)
110kts
Departed: 07-Oct-17 09:43 PM
Arrived: 07-Oct-17 10:38 PM
Distance/Time
Traveled:
75nm/0:55
Distance/Time
To Go:
Arrived

Flight Plot

Page will automatically refresh every two minutes.


Map Options




Map Legend


Flown Route
Filed Route
Departure Airport
Arrival Airport
Navaid (VOR, NDB)
Fix

Horizontal Profiles

Position Reports

Time Latitude Longitude Heading Altitude Ground
Speed
07-Oct-17 21:34 34.199127 -119.206785 359 46ft 0kts
07-Oct-17 21:35 34.199127 -119.206785 359 46ft 0kts
07-Oct-17 21:36 34.199127 -119.206785 359 46ft 0kts
07-Oct-17 21:37 34.199127 -119.206785 359 46ft 0kts
07-Oct-17 21:38 34.199127 -119.206785 359 46ft 0kts
07-Oct-17 21:39 34.199127 -119.206785 359 46ft 0kts
07-Oct-17 21:40 34.199127 -119.206785 359 46ft 0kts
07-Oct-17 21:41 34.199127 -119.206785 359 46ft 0kts
07-Oct-17 21:42 34.199485 -119.206504 49 46ft 11kts
07-Oct-17 21:43 34.199767 -119.201631 90 46ft 20kts
07-Oct-17 21:44 34.199882 -119.197565 16 46ft 0kts
07-Oct-17 21:45 34.199882 -119.197565 16 46ft 0kts
07-Oct-17 21:46 34.200629 -119.197581 326 46ft 8kts
07-Oct-17 21:47 34.200761 -119.202507 270 46ft 73kts
07-Oct-17 21:48 34.205812 -119.231004 285 971ft 91kts
07-Oct-17 21:49 34.212957 -119.260138 297 1986ft 90kts
07-Oct-17 21:50 34.228592 -119.281398 312 2985ft 85kts
07-Oct-17 21:51 34.243625 -119.301386 311 3965ft 78kts
07-Oct-17 21:52 34.256774 -119.318818 311 4928ft 67kts
07-Oct-17 21:53 34.267057 -119.334617 274 5758ft 54kts
07-Oct-17 21:54 34.277276 -119.360334 304 5953ft 114kts
07-Oct-17 21:55 34.299429 -119.394658 311 5344ft 145kts
07-Oct-17 21:56 34.320330 -119.424069 304 5614ft 129kts
07-Oct-17 21:57 34.336370 -119.456736 309 6016ft 108kts
07-Oct-17 21:58 34.351773 -119.481449 305 6672ft 96kts
07-Oct-17 21:59 34.364748 -119.503934 304 7265ft 92kts
07-Oct-17 22:00 34.378055 -119.527772 303 7760ft 98kts
07-Oct-17 22:01 34.392863 -119.554715 303 7993ft 111kts
07-Oct-17 22:02 34.408179 -119.582675 303 7988ft 106kts
07-Oct-17 22:03 34.422875 -119.609616 303 7989ft 104kts
07-Oct-17 22:04 34.437427 -119.636355 303 7990ft 104kts
07-Oct-17 22:05 34.451203 -119.661702 303 7990ft 104kts
07-Oct-17 22:06 34.465905 -119.688780 303 7990ft 104kts
07-Oct-17 22:07 34.480457 -119.715590 303 7990ft 104kts
07-Oct-17 22:08 34.495120 -119.742640 303 8001ft 106kts
07-Oct-17 22:09 34.510279 -119.770818 299 7818ft 115kts
07-Oct-17 22:10 34.522609 -119.800937 285 7805ft 108kts
07-Oct-17 22:11 34.527201 -119.835711 272 7283ft 116kts
07-Oct-17 22:12 34.528038 -119.868266 271 6443ft 101kts
07-Oct-17 22:13 34.528655 -119.898096 271 6109ft 91kts
07-Oct-17 22:14 34.529190 -119.927001 271 6130ft 105kts
07-Oct-17 22:15 34.529810 -119.960782 271 6120ft 110kts
07-Oct-17 22:16 34.530427 -119.995098 271 6119ft 110kts
07-Oct-17 22:17 34.530992 -120.027938 271 6123ft 110kts
07-Oct-17 22:18 34.531537 -120.061991 270 6118ft 109kts
07-Oct-17 22:19 34.535719 -120.093958 309 6124ft 109kts
07-Oct-17 22:20 34.553161 -120.117294 314 5651ft 110kts
07-Oct-17 22:21 34.571116 -120.139822 314 5051ft 109kts
07-Oct-17 22:22 34.588207 -120.161125 314 4691ft 103kts
07-Oct-17 22:23 34.601579 -120.177788 314 4508ft 99kts
07-Oct-17 22:24 34.616935 -120.196932 314 4516ft 102kts
07-Oct-17 22:25 34.632939 -120.216865 314 4414ft 100kts
07-Oct-17 22:26 34.649184 -120.237121 314 4016ft 101kts
07-Oct-17 22:27 34.665728 -120.257770 314 3620ft 100kts
07-Oct-17 22:29 34.681811 -120.277872 314 3627ft 104kts
07-Oct-17 22:30 34.699843 -120.300395 314 3635ft 115kts
07-Oct-17 22:30 34.714964 -120.319295 314 3616ft 102kts
07-Oct-17 22:31 34.733060 -120.335160 330 3450ft 102kts
07-Oct-17 22:33 34.757446 -120.352067 330 2990ft 106kts
07-Oct-17 22:34 34.778278 -120.366393 330 2573ft 77kts
07-Oct-17 22:34 34.791948 -120.375791 330 2293ft 83kts
07-Oct-17 22:36 34.809957 -120.388455 330 2203ft 77kts
07-Oct-17 22:36 34.823805 -120.398069 330 2029ft 78kts
07-Oct-17 22:37 34.840113 -120.409309 330 1744ft 80kts
07-Oct-17 22:38 34.855874 -120.420247 330 1332ft 77kts
07-Oct-17 22:39 34.869337 -120.429721 331 1138ft 69kts
07-Oct-17 22:40 34.884107 -120.438859 337 862ft 75kts
07-Oct-17 22:41 34.896681 -120.450426 316 324ft 64kts
07-Oct-17 22:42 34.903026 -120.456782 44 265ft 13kts
07-Oct-17 22:43 34.903416 -120.456102 98 265ft 14kts
07-Oct-17 22:44 34.902608 -120.454191 42 265ft 0kts
07-Oct-17 22:45 34.902608 -120.454191 42 265ft 0kts
07-Oct-17 22:46 34.902608 -120.454191 43 265ft 0kts
07-Oct-17 22:47 34.902608 -120.454191 43 265ft 0kts
07-Oct-17 22:48 34.902608 -120.454191 43 265ft 0kts

Navigation Log

Ident Type
1. KOXR Airport
2. RZS Navaid
3. KOAKS Fix
4. KSMX Airport